Crystal River, FL

2:51 PM EST on January 21, 2017 (GMT -0500)
Greenwood Acres | | Change Station

Elev 7 ft 28.92 °N, 82.60 °W | Updated 23 seconds ago

Mostly Cloudy
Mostly Cloudy
77.9 °F
Feels Like 80 °F
N
4.0
Wind Variable Wind from West
Gusts 15.0 mph

Today
High -- | Low -- °F
--% Chance of Precip.
Yesterday
High -- | Low -- °F
Precip. -- in
Pressure 29.81 in
Visibility 10.0 miles
Clouds Scattered Clouds 4500 ft
Mostly Cloudy 7000 ft
Heat Index 80 °F
Dew Point 67 °F
Humidity 69%
Rainfall 0.00 in
Snow Depth Not available.
7:23 AM 6:00 PM
Waning Crescent, 32% visible
METAR KCGC 211935Z AUTO 22009G16KT 160V250 10SM SCT045 BKN070 26/17 A2981 RMK AO2
Pressure 29.81 in
Visibility 10.0 miles
Clouds Scattered Clouds 4500 ft
Mostly Cloudy 7000 ft
Heat Index 80 °F
Dew Point 67 °F
Humidity 69%
Rainfall 0.00 in
Snow Depth Not available.
7:23 AM 6:00 PM
Waning Crescent, 32% visible
METAR KCGC 211935Z AUTO 22009G16KT 160V250 10SM SCT045 BKN070 26/17 A2981 RMK AO2

Get Your Daily Forecast Email!

Thanks for signing up!

Be on the lookout for a verification email in your inbox.

You'll start receiving the daily forecast at 8 AM.

×

10-Day Weather Forecast

Almanac

Astronomy

Jan. 21, 2017 Rise Set
Actual Time
Civil Twilight
Nautical Twilight
Astronomical Twilight
Moon
Length of Visible Light
Length of Day
Tomorrow will be .
, % of the Moon is Illuminated

Today's Extremes

State Highs State Lows

Community

WunderPhotos

Upload Photos

1,962,540 photos uploaded!

WunderBlog® & News

Nearby

Air Quality

  Air Quality AQ Index Pollutant
Not available.

Snow Depth

Station Depth Elevation

Earthquake Activity

City Distance Mag. Time & Date
Minimum magnitude displayed is 2.5.

Coastal Water Temperatures

Place Temperature

Stations

Nearby Weather Stations

Station Location Temp. Windchill Dew Point Humidity Wind Precip. Elev Updated Type
                   

Watches & Warnings

Small Craft Advisory, Gale Watch
Issued: 2:34 PM EST Jan. 21, 2017 – National Weather Service

... Small Craft Advisory now in effect from Sunday morning to
Monday evening...
... Gale watch in effect from Sunday afternoon through Monday
evening...

The National Weather Service in Tampa Bay Ruskin has issued a
gale watch, which is in effect from Sunday afternoon through
Monday evening.

* Winds... 30 to 35 knots Sunday and Monday with gusts to 40 knots.

* Waves/seas... 6 to 9 feet Sunday building to 10 to 15 feet
Monday.

Precautionary/preparedness actions...

A Small Craft Advisory means that wind speeds of 21 to 33 knots
are expected to produce hazardous wave conditions to small craft.
Inexperienced mariners... especially those operating smaller
vessels should avoid navigating in these conditions.

A gale watch is issued when the risk of gale force winds of 34 to
47 knots has significantly increased... but the specific timing
and/or location is still uncertain. It is intended to provide
additional lead time for mariners who may wish to consider
altering their plans.